Aviation Digital Data Service (ADDS)

Output produced by METARs form (1803 UTC 24 June 2019)
found at http://www.aviationweather.gov/metar/data/
 
Forecast for: NVVV (BAUERFIELD/EFATE, VU)
Text: TAF NVVV 241600Z 2418/2518 09010G20KT 9999 -SHRA SCT020 BKN040 INTER 2418/2421 5000 RA SCT008 BKN014 OVC035 INTER 2422/2501 7000 +SHRA SCT009 BKN016 OVC038
Forecast period: 1800 UTC 24 June 2019 to 1800 UTC 25 June 2019
Forecast type: FROM: standard forecast or significant change
Winds: from the E (90 degrees) at 12 MPH (10 knots; 5.1 m/s)
gusting to 23 MPH (20 knots; 10.3 m/s)
Visibility: 6 or more miles 10+ km)
Ceiling: 4000 feet AGL
Clouds: scattered clouds at 2000 feet AGL
broken clouds at 4000 feet AGL
Weather: -SHRA  (light rain showers)
Text:
Forecast period: 1800 to 2100 UTC 24 June 2019
Forecast type: TEMPORARY: The following changes expected for less than half the time period
Visibility: 3 miles (5 km)
Ceiling: 1400 feet AGL
Clouds: scattered clouds at 800 feet AGL
broken clouds at 1400 feet AGL
overcast cloud deck at 3500 feet AGL
Weather: RA  (moderate rain)
Text:
Forecast period: 2200 UTC 24 June 2019 to 0100 UTC 25 June 2019
Forecast type: TEMPORARY: The following changes expected for less than half the time period
Visibility: 4 miles (7 km)
Ceiling: 1600 feet AGL
Clouds: scattered clouds at 900 feet AGL
broken clouds at 1600 feet AGL
overcast cloud deck at 3800 feet AGL
Weather: +SHRA  (heavy rain showers)